createdAt,value
2022-12-19T00:00:01.302Z,72.71
2022-12-19T00:02:28.658Z,72.94
2022-12-19T00:04:55.270Z,73.03
2022-12-19T00:07:21.828Z,73.01
2022-12-19T00:09:48.843Z,73.21
2022-12-19T00:12:19.179Z,73.10
2022-12-19T00:14:46.769Z,73.28
2022-12-19T00:17:13.844Z,73.22
2022-12-19T00:19:41.425Z,73.10
2022-12-19T00:22:11.138Z,73.05
2022-12-19T00:24:38.077Z,72.90
2022-12-19T00:27:04.697Z,72.80
2022-12-19T00:29:31.359Z,72.96
2022-12-19T00:31:58.230Z,72.67
2022-12-19T00:34:24.685Z,72.72
2022-12-19T00:36:51.134Z,72.75
2022-12-19T00:39:18.107Z,72.81
2022-12-19T00:41:44.540Z,72.74
2022-12-19T00:44:15.276Z,72.93
2022-12-19T00:46:42.253Z,72.92
2022-12-19T00:49:09.131Z,72.84
2022-12-19T00:51:36.872Z,73.00
2022-12-19T00:54:06.690Z,73.11
2022-12-19T00:56:37.195Z,73.23
2022-12-19T00:59:04.324Z,73.09
2022-12-19T01:01:34.095Z,73.08
2022-12-19T01:04:27.833Z,73.39
2022-12-19T01:06:49.411Z,73.17
2022-12-19T01:09:16.266Z,73.08
2022-12-19T01:12:01.993Z,73.03
2022-12-19T01:14:29.146Z,72.86
2022-12-19T01:16:58.327Z,72.68
2022-12-19T01:19:26.373Z,72.77
2022-12-19T01:21:53.097Z,72.83
2022-12-19T01:24:19.817Z,72.91
2022-12-19T01:26:46.417Z,72.95
2022-12-19T01:29:13.033Z,73.29
2022-12-19T01:31:39.559Z,73.02
2022-12-19T01:34:06.251Z,72.99
2022-12-19T01:36:34.135Z,72.88
2022-12-19T01:39:03.517Z,73.16
2022-12-19T01:41:30.050Z,73.25
2022-12-19T01:44:02.711Z,73.23
2022-12-19T01:46:49.768Z,72.81
2022-12-19T01:49:25.240Z,72.81
2022-12-19T01:51:53.594Z,72.81
2022-12-19T01:54:23.104Z,72.59
2022-12-19T01:56:51.625Z,72.39
2022-12-19T01:59:39.153Z,72.42
2022-12-19T02:02:19.264Z,72.50
2022-12-19T02:04:47.241Z,72.18
2022-12-19T02:07:16.587Z,72.16
2022-12-19T02:09:45.132Z,72.31
2022-12-19T02:12:12.204Z,72.39
2022-12-19T02:14:39.052Z,72.49
2022-12-19T02:17:12.447Z,72.78
2022-12-19T02:20:05.499Z,72.77
2022-12-19T02:22:32.561Z,72.62
2022-12-19T02:25:27.295Z,72.87
2022-12-19T02:28:29.609Z,72.66
2022-12-19T02:31:05.405Z,72.59
2022-12-19T02:33:54.415Z,72.34
2022-12-19T02:36:32.425Z,72.25
2022-12-19T02:39:10.079Z,72.44
2022-12-19T02:41:42.647Z,72.35
2022-12-19T02:44:18.676Z,72.22
2022-12-19T02:46:46.168Z,72.39
2022-12-19T02:49:16.598Z,72.24
2022-12-19T02:51:48.372Z,72.21
2022-12-19T02:54:15.631Z,72.22
2022-12-19T02:56:54.763Z,72.46
2022-12-19T02:59:40.718Z,72.37
2022-12-19T03:02:17.939Z,72.70
2022-12-19T03:04:52.002Z,72.71
2022-12-19T03:08:00.320Z,72.89
2022-12-19T03:10:37.127Z,72.72
2022-12-19T03:13:14.323Z,72.59
2022-12-19T03:15:44.225Z,72.43
2022-12-19T03:18:10.914Z,72.48
2022-12-19T03:20:48.057Z,72.32
2022-12-19T03:23:15.333Z,71.97
2022-12-19T03:25:47.796Z,72.12
2022-12-19T03:28:30.925Z,72.13
2022-12-19T03:30:58.626Z,72.10
2022-12-19T03:33:29.510Z,72.15
2022-12-19T03:35:56.926Z,72.11
2022-12-19T03:38:27.866Z,72.34
2022-12-19T03:40:55.013Z,72.22
2022-12-19T03:43:21.925Z,72.40
2022-12-19T03:46:06.330Z,72.39
2022-12-19T03:48:38.413Z,72.42
2022-12-19T03:51:16.927Z,72.51
2022-12-19T03:53:52.238Z,72.57
2022-12-19T03:56:37.757Z,72.44
2022-12-19T03:59:34.384Z,72.46
2022-12-19T04:02:02.544Z,72.18
2022-12-19T04:04:30.567Z,72.16
2022-12-19T04:06:57.804Z,72.26
2022-12-19T04:09:24.588Z,72.05
2022-12-19T04:11:53.984Z,71.89
2022-12-19T04:14:26.183Z,72.27
2022-12-19T04:17:05.148Z,72.30
2022-12-19T04:19:42.342Z,72.20
2022-12-19T04:22:36.681Z,72.10
2022-12-19T04:25:05.875Z,72.46
2022-12-19T04:27:33.986Z,72.32
2022-12-19T04:30:02.093Z,72.51
2022-12-19T04:32:29.850Z,72.61
2022-12-19T04:34:59.263Z,72.48
2022-12-19T04:37:28.937Z,72.69
2022-12-19T04:39:55.466Z,72.65
2022-12-19T04:42:22.283Z,72.84
2022-12-19T04:44:48.926Z,72.95
2022-12-19T04:47:15.340Z,72.27
2022-12-19T04:49:41.926Z,72.20
2022-12-19T04:52:10.873Z,72.30
2022-12-19T04:54:37.851Z,72.21
2022-12-19T04:57:04.571Z,72.20
2022-12-19T04:59:31.124Z,72.24
2022-12-19T05:05:09.000Z,72.11
2022-12-19T05:07:36.161Z,72.38
2022-12-19T05:10:03.543Z,72.14
2022-12-19T05:12:29.892Z,72.44
2022-12-19T05:14:56.401Z,72.36
2022-12-19T05:17:22.925Z,72.51
2022-12-19T05:19:49.299Z,72.63
2022-12-19T05:22:16.097Z,72.64
2022-12-19T05:24:42.486Z,72.69
2022-12-19T05:27:09.068Z,72.89
2022-12-19T05:29:35.587Z,72.77
2022-12-19T05:32:01.989Z,72.50
2022-12-19T05:34:28.708Z,72.68
2022-12-19T05:36:55.253Z,72.30
2022-12-19T05:39:21.702Z,72.39
2022-12-19T05:41:49.343Z,72.32
2022-12-19T05:44:16.641Z,72.37
2022-12-19T05:46:43.071Z,72.04
2022-12-19T05:49:09.654Z,72.01
2022-12-19T05:51:36.407Z,72.05
2022-12-19T05:54:03.159Z,72.29
2022-12-19T05:56:29.770Z,72.33
2022-12-19T05:58:59.051Z,72.56
2022-12-19T06:01:27.123Z,72.57
2022-12-19T06:03:54.467Z,72.69
2022-12-19T06:06:21.779Z,72.80
2022-12-19T06:08:52.936Z,72.98
2022-12-19T06:11:19.382Z,73.16
2022-12-19T06:13:46.391Z,73.09
2022-12-19T06:16:15.394Z,73.21
2022-12-19T06:18:45.585Z,73.26
2022-12-19T06:21:20.516Z,73.04
2022-12-19T06:23:47.724Z,72.91
2022-12-19T06:26:19.526Z,73.00
2022-12-19T06:28:47.963Z,72.73
2022-12-19T06:31:14.973Z,72.75
2022-12-19T06:33:43.777Z,72.62
2022-12-19T06:36:22.270Z,72.69
2022-12-19T06:38:53.149Z,72.79
2022-12-19T06:41:38.925Z,73.02
2022-12-19T06:44:08.351Z,72.88
2022-12-19T06:46:36.877Z,73.09
2022-12-19T06:49:08.775Z,73.00
2022-12-19T06:51:35.274Z,73.38
2022-12-19T06:54:02.067Z,73.19
2022-12-19T06:56:32.835Z,73.21
2022-12-19T06:58:59.917Z,73.22
2022-12-19T07:01:29.648Z,73.32
2022-12-19T07:03:56.554Z,73.43
2022-12-19T07:06:23.033Z,73.55
2022-12-19T07:08:49.846Z,73.64
2022-12-19T07:11:16.849Z,73.42
2022-12-19T07:13:43.286Z,73.69
2022-12-19T07:16:10.037Z,73.73
2022-12-19T07:18:38.109Z,73.25
2022-12-19T07:21:05.050Z,73.91
2022-12-19T07:23:31.690Z,73.47
2022-12-19T07:25:58.195Z,73.21
2022-12-19T07:28:24.845Z,73.07
2022-12-19T07:30:51.712Z,73.04
2022-12-19T07:33:21.371Z,73.07
2022-12-19T07:35:48.672Z,73.30
2022-12-19T07:38:15.531Z,73.34
2022-12-19T07:40:42.264Z,73.20
2022-12-19T07:43:08.946Z,73.20
2022-12-19T07:45:37.422Z,73.52
2022-12-19T07:48:05.179Z,73.66
2022-12-19T07:50:32.057Z,73.56
2022-12-19T07:52:58.826Z,73.44
2022-12-19T07:55:26.157Z,73.32
2022-12-19T07:57:53.222Z,73.97
2022-12-19T08:00:21.046Z,73.99
2022-12-19T08:02:48.022Z,74.03
2022-12-19T08:05:15.173Z,73.91
2022-12-19T08:07:41.753Z,74.14
2022-12-19T08:10:11.118Z,74.54
2022-12-19T08:12:38.165Z,74.81
2022-12-19T08:15:05.771Z,74.42
2022-12-19T08:17:32.318Z,74.72
2022-12-19T08:19:58.801Z,74.61
2022-12-19T08:22:25.500Z,74.23
2022-12-19T08:24:52.104Z,74.39
2022-12-19T08:27:18.545Z,74.39
2022-12-19T08:29:45.273Z,74.55
2022-12-19T08:32:17.110Z,74.64
2022-12-19T08:34:47.492Z,74.38
2022-12-19T08:37:14.277Z,74.39
2022-12-19T08:39:40.732Z,74.38
2022-12-19T08:42:07.417Z,74.15
2022-12-19T08:44:34.483Z,73.84
2022-12-19T08:47:01.780Z,73.95
2022-12-19T08:49:28.400Z,73.93
2022-12-19T08:51:55.129Z,74.24
2022-12-19T08:54:21.643Z,74.48
2022-12-19T08:56:48.353Z,74.19
2022-12-19T08:59:26.435Z,74.15
2022-12-19T09:02:01.309Z,74.08
2022-12-19T09:06:02.453Z,74.06
2022-12-19T09:07:16.173Z,74.15
2022-12-19T09:09:43.983Z,73.99
2022-12-19T09:12:13.558Z,74.10
2022-12-19T09:14:40.275Z,73.23
2022-12-19T09:17:07.035Z,73.14
2022-12-19T09:19:33.592Z,73.48
2022-12-19T09:22:00.563Z,73.18
2022-12-19T09:24:27.115Z,73.41
2022-12-19T09:26:53.896Z,73.26
2022-12-19T09:29:22.111Z,73.45
2022-12-19T09:31:55.708Z,73.35
2022-12-19T09:34:37.198Z,73.46
2022-12-19T09:37:16.893Z,73.56
2022-12-19T09:39:47.777Z,73.77
2022-12-19T09:42:17.336Z,73.62
2022-12-19T09:44:49.928Z,73.81
2022-12-19T09:47:19.553Z,73.69
2022-12-19T09:49:47.134Z,73.70
2022-12-19T09:52:25.029Z,73.74
2022-12-19T09:55:02.977Z,73.65
2022-12-19T09:57:36.375Z,73.63
2022-12-19T10:00:10.022Z,73.64
2022-12-19T10:02:57.360Z,73.38
2022-12-19T10:06:47.837Z,73.25
2022-12-19T10:09:10.055Z,73.22
2022-12-19T10:12:40.358Z,73.13
2022-12-19T10:14:55.489Z,73.15
2022-12-19T10:17:33.141Z,73.23
2022-12-19T10:20:27.037Z,73.17
2022-12-19T10:23:19.023Z,73.19
2022-12-19T10:26:13.036Z,73.27
2022-12-19T10:29:17.664Z,73.46
2022-12-19T10:32:12.936Z,73.50
2022-12-19T10:34:44.565Z,73.39
2022-12-19T10:37:25.762Z,73.48
2022-12-19T10:40:27.228Z,73.41
2022-12-19T10:43:07.024Z,73.36
2022-12-19T10:45:47.108Z,73.61
2022-12-19T10:48:20.457Z,73.47
2022-12-19T10:50:50.360Z,73.60
2022-12-19T10:53:26.301Z,73.61
2022-12-19T10:55:53.443Z,73.47
2022-12-19T10:58:28.636Z,73.51
2022-12-19T11:01:09.396Z,73.23
2022-12-19T11:03:38.080Z,73.45
2022-12-19T11:06:06.604Z,73.10
2022-12-19T11:08:35.097Z,73.05
2022-12-19T11:14:15.213Z,73.18
2022-12-19T11:17:53.291Z,73.14
2022-12-19T11:22:50.216Z,73.13
2022-12-19T11:29:16.226Z,73.19
2022-12-19T11:29:25.558Z,73.26
2022-12-19T11:29:33.567Z,73.38
2022-12-19T11:30:41.737Z,73.33
2022-12-19T11:34:04.308Z,73.73
2022-12-19T11:36:59.776Z,73.78
2022-12-19T11:39:36.700Z,73.93
2022-12-19T11:43:25.484Z,73.63
2022-12-19T11:45:59.785Z,73.81
2022-12-19T11:48:54.924Z,73.78
2022-12-19T11:51:35.762Z,73.59
2022-12-19T11:54:24.623Z,73.40
2022-12-19T11:56:51.453Z,73.54
2022-12-19T11:59:30.358Z,73.54
2022-12-19T12:02:19.240Z,73.48
2022-12-19T12:05:13.747Z,73.50
2022-12-19T12:09:23.773Z,73.46
2022-12-19T12:16:17.746Z,73.70
2022-12-19T12:23:13.230Z,73.88
2022-12-19T12:29:36.596Z,73.63
2022-12-19T12:31:05.598Z,73.82
2022-12-19T12:31:14.254Z,73.92
2022-12-19T12:31:49.679Z,73.69
2022-12-19T12:35:16.694Z,73.66
2022-12-19T12:35:38.337Z,73.86
2022-12-19T12:35:54.320Z,73.73
2022-12-19T12:38:18.746Z,73.20
2022-12-19T12:41:14.803Z,73.38
2022-12-19T12:44:07.911Z,73.41
2022-12-19T12:46:46.473Z,73.84
2022-12-19T12:49:41.932Z,73.54
2022-12-19T12:52:28.610Z,73.87
2022-12-19T12:54:55.417Z,73.57
2022-12-19T12:57:28.915Z,73.63
2022-12-19T13:00:19.926Z,73.85
2022-12-19T13:02:50.872Z,73.72
2022-12-19T13:05:29.176Z,73.47
2022-12-19T13:07:55.985Z,73.35
2022-12-19T13:10:30.686Z,73.51
2022-12-19T13:13:01.893Z,73.06
2022-12-19T13:15:28.421Z,73.39
2022-12-19T13:17:55.265Z,73.33
2022-12-19T13:20:25.101Z,73.27
2022-12-19T13:23:00.216Z,73.41
2022-12-19T13:25:48.264Z,73.30
2022-12-19T13:28:21.329Z,73.36
2022-12-19T13:31:20.874Z,73.79
2022-12-19T13:33:52.845Z,73.38
2022-12-19T13:39:49.599Z,73.48
2022-12-19T13:39:54.165Z,73.70
2022-12-19T13:42:36.451Z,73.73
2022-12-19T13:45:09.582Z,73.66
2022-12-19T13:47:39.353Z,73.55
2022-12-19T13:50:25.509Z,73.55
2022-12-19T13:52:52.179Z,73.62
2022-12-19T13:55:18.801Z,73.25
2022-12-19T13:57:51.947Z,73.18
2022-12-19T14:00:20.936Z,73.23
2022-12-19T14:02:53.797Z,73.50
2022-12-19T14:05:34.052Z,73.20
2022-12-19T14:08:16.924Z,73.50
2022-12-19T14:11:32.579Z,73.46
2022-12-19T14:14:03.185Z,73.43
2022-12-19T14:16:34.820Z,73.71
2022-12-19T14:19:19.725Z,73.79
2022-12-19T14:22:05.620Z,73.84
2022-12-19T14:24:33.159Z,73.86
2022-12-19T14:28:19.382Z,73.76
2022-12-19T14:30:30.231Z,74.06
2022-12-19T14:33:39.330Z,73.81
2022-12-19T14:36:10.440Z,73.97
2022-12-19T14:39:24.874Z,73.79
2022-12-19T14:41:46.230Z,73.67
2022-12-19T14:52:25.291Z,73.62
2022-12-19T14:53:51.201Z,73.81
2022-12-19T14:54:23.411Z,73.59
2022-12-19T14:54:25.520Z,73.89
2022-12-19T14:56:04.170Z,73.97
2022-12-19T14:58:52.565Z,73.77
2022-12-19T15:01:25.762Z,74.22
2022-12-19T15:04:52.155Z,73.92
2022-12-19T15:07:08.849Z,73.85
2022-12-19T15:11:07.707Z,73.90
2022-12-19T15:14:55.303Z,74.04
2022-12-19T15:16:00.501Z,74.11
2022-12-19T15:18:38.754Z,73.92
2022-12-19T15:21:09.008Z,73.97
2022-12-19T15:23:35.802Z,73.77
2022-12-19T15:26:07.078Z,73.86
2022-12-19T15:28:50.243Z,73.75
2022-12-19T15:31:32.406Z,73.83
2022-12-19T15:34:32.899Z,73.74
2022-12-19T15:36:46.290Z,73.92
2022-12-19T15:39:14.489Z,73.74
2022-12-19T15:41:41.446Z,74.39
2022-12-19T15:44:09.692Z,74.02
2022-12-19T15:46:38.911Z,74.02
2022-12-19T15:49:20.818Z,74.45
2022-12-19T15:51:48.341Z,74.43
2022-12-19T15:54:47.264Z,74.36
2022-12-19T15:57:02.407Z,74.27
2022-12-19T15:59:38.186Z,74.48
2022-12-19T16:02:17.044Z,74.19
2022-12-19T16:04:45.453Z,74.27
2022-12-19T16:07:20.231Z,74.01
2022-12-19T16:09:48.092Z,74.11
2022-12-19T16:12:38.098Z,74.32
2022-12-19T16:15:09.971Z,74.20
2022-12-19T16:17:37.396Z,74.28
2022-12-19T16:20:06.688Z,74.44
2022-12-19T16:22:33.456Z,74.31
2022-12-19T16:25:01.673Z,74.43
2022-12-19T16:27:29.833Z,74.34
2022-12-19T16:30:00.247Z,74.60
2022-12-19T16:32:26.745Z,74.52
2022-12-19T16:34:54.891Z,74.17
2022-12-19T16:37:23.586Z,74.32
2022-12-19T16:39:54.014Z,74.61
2022-12-19T16:42:20.751Z,74.24
2022-12-19T16:44:47.684Z,74.34
2022-12-19T16:47:16.641Z,74.47
2022-12-19T16:49:44.049Z,74.26
2022-12-19T16:52:10.777Z,73.98
2022-12-19T16:54:37.237Z,74.23
2022-12-19T16:57:06.319Z,74.49
2022-12-19T16:59:35.839Z,74.74
2022-12-19T17:02:24.438Z,75.01
2022-12-19T17:04:54.080Z,74.64
2022-12-19T17:07:21.457Z,74.75
2022-12-19T17:09:47.902Z,74.73
2022-12-19T17:12:17.859Z,74.65
2022-12-19T17:14:44.618Z,74.51
2022-12-19T17:17:15.055Z,74.64
2022-12-19T17:19:44.504Z,74.27
2022-12-19T17:22:13.298Z,74.76
2022-12-19T17:24:40.161Z,74.73
2022-12-19T17:27:06.777Z,74.72
2022-12-19T17:29:33.261Z,74.91
2022-12-19T17:32:00.080Z,74.88
2022-12-19T17:34:31.243Z,74.90
2022-12-19T17:36:59.866Z,75.00
2022-12-19T17:39:29.285Z,75.22
2022-12-19T17:42:02.051Z,75.10
2022-12-19T17:44:29.033Z,74.98
2022-12-19T17:46:55.523Z,75.09
2022-12-19T17:49:29.804Z,74.66
2022-12-19T17:51:57.005Z,74.87
2022-12-19T17:54:23.759Z,74.78
2022-12-19T17:56:50.295Z,74.97
2022-12-19T17:59:17.020Z,74.71
2022-12-19T18:01:46.799Z,74.82
2022-12-19T18:04:16.659Z,74.77
2022-12-19T18:06:43.409Z,74.79
2022-12-19T18:09:24.387Z,74.93
2022-12-19T18:11:52.239Z,75.02
2022-12-19T18:14:18.923Z,74.94
2022-12-19T18:16:46.195Z,74.86
2022-12-19T18:19:21.232Z,74.90
2022-12-19T18:21:48.591Z,74.88
2022-12-19T18:24:15.948Z,74.75
2022-12-19T18:26:43.952Z,74.96
2022-12-19T18:29:11.108Z,75.23
2022-12-19T18:31:40.584Z,74.88
2022-12-19T18:34:21.603Z,75.01
2022-12-19T18:36:48.113Z,75.26
2022-12-19T18:39:26.169Z,75.26
2022-12-19T18:41:53.502Z,75.29
2022-12-19T18:44:22.435Z,75.68
2022-12-19T18:46:50.182Z,75.82
2022-12-19T18:49:17.363Z,75.54
2022-12-19T18:51:44.203Z,75.55
2022-12-19T18:54:16.423Z,75.85
2022-12-19T18:56:43.893Z,75.67
2022-12-19T18:59:10.434Z,75.43
2022-12-19T19:01:45.606Z,75.62
2022-12-19T19:04:13.831Z,75.72
2022-12-19T19:06:45.014Z,75.91
2022-12-19T19:09:17.481Z,75.92
2022-12-19T19:11:44.384Z,76.17
2022-12-19T19:14:11.015Z,75.82
2022-12-19T19:16:39.165Z,76.35
2022-12-19T19:21:53.991Z,76.50
2022-12-19T19:24:21.863Z,76.09
2022-12-19T19:26:49.049Z,76.37
2022-12-19T19:29:18.249Z,76.09
2022-12-19T19:31:46.093Z,76.16
2022-12-19T19:34:27.107Z,76.37
2022-12-19T19:36:55.438Z,76.49
2022-12-19T19:39:22.616Z,76.63
2022-12-19T19:41:49.041Z,76.60
2022-12-19T19:44:15.910Z,76.59
2022-12-19T19:46:42.568Z,76.47
2022-12-19T19:49:09.258Z,76.28
2022-12-19T19:51:36.289Z,76.47
2022-12-19T19:54:02.961Z,76.30
2022-12-19T19:56:30.612Z,76.26
2022-12-19T19:58:59.690Z,76.37
2022-12-19T20:01:27.689Z,76.52
2022-12-19T20:03:55.004Z,76.66
2022-12-19T20:06:21.929Z,76.30
2022-12-19T20:08:48.801Z,76.53
2022-12-19T20:11:15.499Z,76.49
2022-12-19T20:13:42.026Z,76.36
2022-12-19T20:16:10.900Z,76.62
2022-12-19T20:18:39.424Z,76.30
2022-12-19T20:21:13.212Z,76.14
2022-12-19T20:23:42.362Z,76.24
2022-12-19T20:26:10.853Z,76.46
2022-12-19T20:28:42.302Z,76.52
2022-12-19T20:31:14.573Z,76.84
2022-12-19T20:33:41.184Z,76.69
2022-12-19T20:36:10.566Z,76.58
2022-12-19T20:38:37.924Z,77.03
2022-12-19T20:41:04.789Z,76.88
2022-12-19T20:43:31.818Z,76.89
2022-12-19T20:46:05.247Z,76.77
2022-12-19T20:48:32.343Z,76.99
2022-12-19T20:51:00.038Z,76.90
2022-12-19T20:53:27.480Z,77.14
2022-12-19T20:55:58.129Z,77.36
2022-12-19T20:58:27.155Z,77.28
2022-12-19T21:00:55.765Z,77.35
2022-12-19T21:03:28.952Z,77.10
2022-12-19T21:05:56.905Z,77.17
2022-12-19T21:08:24.146Z,77.33
2022-12-19T21:10:51.029Z,77.48
2022-12-19T21:13:17.861Z,77.35
2022-12-19T21:15:56.512Z,77.44
2022-12-19T21:18:25.443Z,77.82
2022-12-19T21:20:53.025Z,77.86
2022-12-19T21:23:19.757Z,77.54
2022-12-19T21:25:46.383Z,77.68
2022-12-19T21:28:13.384Z,77.56
2022-12-19T21:30:40.697Z,77.48
2022-12-19T21:33:08.194Z,77.25
2022-12-19T21:35:35.568Z,77.58
2022-12-19T21:38:02.330Z,77.43
2022-12-19T21:40:29.681Z,77.90
2022-12-19T21:42:56.565Z,77.75
2022-12-19T21:45:24.585Z,78.04
2022-12-19T21:47:51.624Z,77.74
2022-12-19T21:50:18.103Z,78.02
2022-12-19T21:52:45.090Z,78.18
2022-12-19T21:55:12.220Z,77.99
2022-12-19T21:57:39.697Z,78.39
2022-12-19T22:00:10.913Z,78.24
2022-12-19T22:02:38.842Z,78.43
2022-12-19T22:05:06.955Z,78.53
2022-12-19T22:07:34.125Z,78.56
2022-12-19T22:10:01.169Z,78.80
2022-12-19T22:12:27.871Z,78.39
2022-12-19T22:14:55.522Z,78.64
2022-12-19T22:17:22.747Z,78.57
2022-12-19T22:19:49.189Z,79.00
2022-12-19T22:22:15.674Z,79.15
2022-12-19T22:24:42.643Z,79.18
2022-12-19T22:27:09.399Z,79.10
2022-12-19T22:29:36.900Z,78.83
2022-12-19T22:32:04.131Z,79.22
2022-12-19T22:34:30.953Z,78.96
2022-12-19T22:36:57.730Z,79.01
2022-12-19T22:39:25.030Z,79.06
2022-12-19T22:41:51.785Z,79.36
2022-12-19T22:44:20.774Z,79.16
2022-12-19T22:46:48.128Z,79.04
2022-12-19T22:49:14.903Z,79.45
2022-12-19T22:51:41.740Z,79.33
2022-12-19T22:54:09.440Z,79.48
2022-12-19T22:56:36.582Z,79.59
2022-12-19T22:59:05.966Z,79.43
2022-12-19T23:01:40.567Z,79.41
2022-12-19T23:04:09.934Z,79.32
2022-12-19T23:06:36.952Z,79.80
2022-12-19T23:09:05.761Z,79.51
2022-12-19T23:11:35.177Z,79.78
2022-12-19T23:14:02.771Z,79.97
2022-12-19T23:16:29.812Z,79.55
2022-12-19T23:18:56.853Z,79.80
2022-12-19T23:21:23.676Z,79.91
2022-12-19T23:23:51.881Z,79.97
2022-12-19T23:26:30.304Z,80.00
2022-12-19T23:28:59.633Z,80.23
2022-12-19T23:31:26.850Z,79.88
2022-12-19T23:33:54.775Z,80.09
2022-12-19T23:36:45.355Z,80.17
2022-12-19T23:39:09.846Z,80.16
2022-12-19T23:41:37.351Z,80.06
2022-12-19T23:44:04.091Z,79.95
2022-12-19T23:46:30.824Z,80.08
2022-12-19T23:48:57.646Z,80.11
2022-12-19T23:51:26.606Z,80.13
2022-12-19T23:53:54.213Z,80.08
2022-12-19T23:56:26.654Z,80.04
2022-12-19T23:58:53.692Z,80.14
